Baltimore, MD

6:47 AM EDT on October 02, 2014 (GMT -0400)
Mount Vernon | Change Station
CLOSE
Current Station
Personal Weather Station
Location: BALTIMORE, MD
Elevation: 89 ft
Nearby Weather Stations

Elev 89 ft 39.30 °N, 76.61 °W | Updated 2 minutes ago

Mostly Cloudy
Mostly Cloudy
65.1 °F
Feels Like 65.1 °F
N
0.0
Wind Variable Wind from North
Gusts 2.0 mph

Today
High -- | Low -- °F
--% Chance of Precip.
Yesterday
High -- | Low -- °F
Precip. -- in
7:03 AM 6:47 PM
First Quarter, 57% visible
Pressure 30.00 in
Visibility 6.0 miles
Clouds Mostly Cloudy 1200 ft
Mostly Cloudy 14000 ft
Dew Point 57 °F
Humidity 76%
Rainfall 0.00 in
Snow Depth Not available.
UV 0 out of 12
Pollen 3.70 out of 12
Air Quality Not available.
Flu Activity Not available.
METAR KBWI 011132Z 03005KT 6SM BR BKN012 BKN140 17/16 A3000 RMK AO2

More Conditions Fewer Conditions

Pressure 30.00 in
Visibility 6.0 miles
Clouds Mostly Cloudy 1200 ft
Mostly Cloudy 14000 ft
Dew Point 57 °F
Humidity 76%
Rainfall 0.00 in
Snow Depth Not available.
UV 0 out of 12
Pollen 3.70 out of 12
Air Quality Not available.
Flu Activity Not available.
METAR KBWI 011132Z 03005KT 6SM BR BKN012 BKN140 17/16 A3000 RMK AO2

More Conditions Fewer Conditions

10-Day Weather Forecast

Almanac

Astronomy

Oct. 02, 2014 Rise Set
Actual Time 7:03 AM EDT 6:47 PM EDT
Civil Twilight 6:36 AM EDT 7:14 PM EDT
Nautical Twilight 6:05 AM EDT 7:45 PM EDT
Astronomical Twilight 5:34 AM EDT 8:16 PM EDT
Moon 2:50 PM EDT 12:20 AM EDT
Length of Visible Light 12h 37m
Length of Day
11h 44m
Tomorrow will be 2m 32s shorter.
First Quarter, 57% of the Moon is Illuminated
Today
First Quarter
Oct 8
Full
Oct 15
Last Quarter
Oct 23
New
Oct 30
First Quarter

Today's Extremes

State Highs State Lows

Community

WunderPhotos

Upload Photos

1,758,210 photos uploaded!

WunderBlogs® & News

Nearby

Snow Depth

Station Depth Elevation
No new snow has been reported.

Earthquake Activity

City Distance Mag. Time & Date
No recent earthquake activity has been reported nearby.
Minimum magnitude displayed is 2.5.

Coastal Water Temperatures

Place Temperature
Baltimore, MD 73.9 °F
Tolchester Beach, MD 72.0 °F
Washington, DC 71.1 °F

Nearby Weather Stations